virtualACA

Welcome To Calgary International Airport CYYC

Hub Roster

Pilot Domicile Rank
Ethan Title - ACA1641CanadaChief Pilot
Graham Dawson - ACA2317CanadaChief Pilot
Roger Godden - ACA2339CanadaChief Pilot
Nemeth Istvan - ACA3257HungaryNew Hire
Burt Dykeman - ACA3267CanadaSecond Officer
Ross Mayl - ACA3271United KingdomNew Hire
Juan Sebastián Molina - ACA3272CanadaNew Hire

Current Vatsim Weather


CYYC 191137Z 30019G27KT 2 1/2SM -TSRA OVC029CB 09/07 A2976 RMK CB8 PRESRR SLP087 DENSITY ALT 4000FT
Calgary International Airport